TimeCST,TemperatureF,Dew PointF,Humidity,Sea Level PressureIn,VisibilityMPH,Wind Direction,Wind SpeedMPH,Gust SpeedMPH,PrecipitationIn,Events,Conditions,WindDirDegrees,DateUTC
12:53 AM,30.9,23.0,72,29.86,10.0,South,17.3,25.3,N/A,,Clear,170,2012-03-10 06:53:00
1:53 AM,30.9,23.0,72,29.85,10.0,South,11.5,-,N/A,,Clear,170,2012-03-10 07:53:00
2:53 AM,30.9,23.0,72,29.81,10.0,SSE,17.3,-,N/A,,Clear,160,2012-03-10 08:53:00
3:53 AM,30.9,23.0,72,29.80,10.0,South,12.7,-,N/A,,Clear,180,2012-03-10 09:53:00
4:53 AM,30.9,24.1,76,29.80,10.0,South,11.5,-,N/A,,Clear,180,2012-03-10 10:53:00
5:53 AM,30.9,24.1,76,29.80,10.0,South,10.4,-,N/A,,Clear,190,2012-03-10 11:53:00
6:53 AM,28.0,21.9,78,29.80,10.0,South,11.5,-,N/A,,Clear,190,2012-03-10 12:53:00
7:53 AM,32.0,24.1,73,29.81,10.0,SSW,11.5,-,N/A,,Clear,210,2012-03-10 13:53:00
8:53 AM,37.0,25.0,62,29.83,10.0,South,6.9,-,N/A,,Clear,170,2012-03-10 14:53:00
9:53 AM,39.0,28.0,65,29.82,10.0,South,9.2,-,N/A,,Clear,190,2012-03-10 15:53:00
10:53 AM,41.0,28.9,62,29.83,10.0,South,8.1,-,N/A,,Clear,190,2012-03-10 16:53:00
11:53 AM,44.1,30.0,58,29.83,10.0,South,9.2,-,N/A,,Clear,190,2012-03-10 17:53:00
12:53 PM,46.0,30.9,56,29.83,10.0,SSW,8.1,-,N/A,,Clear,200,2012-03-10 18:53:00
1:53 PM,48.0,32.0,54,29.82,10.0,South,9.2,-,N/A,,Clear,190,2012-03-10 19:53:00
2:53 PM,48.0,32.0,54,29.82,10.0,SSW,10.4,-,N/A,,Clear,200,2012-03-10 20:53:00
3:53 PM,48.9,33.1,54,29.81,10.0,South,6.9,-,N/A,,Clear,190,2012-03-10 21:53:00
4:53 PM,48.9,34.0,56,29.82,10.0,South,8.1,-,N/A,,Clear,170,2012-03-10 22:53:00
5:53 PM,44.1,33.1,65,29.82,10.0,SE,3.5,-,N/A,,Clear,140,2012-03-10 23:53:00
6:53 PM,43.0,30.9,62,29.83,10.0,SSE,8.1,-,N/A,,Clear,150,2012-03-11 00:53:00
7:53 PM,42.1,32.0,67,29.83,10.0,SSE,6.9,-,N/A,,Clear,150,2012-03-11 01:53:00
8:53 PM,39.0,30.9,73,29.84,10.0,SE,5.8,-,N/A,,Clear,140,2012-03-11 02:53:00
9:53 PM,37.9,30.9,76,29.84,10.0,SSE,6.9,-,N/A,,Clear,150,2012-03-11 03:53:00
10:53 PM,34.0,28.9,82,29.86,10.0,ESE,4.6,-,N/A,,Clear,110,2012-03-11 04:53:00
11:53 PM,34.0,28.9,82,29.84,10.0,SSE,3.5,-,N/A,,Clear,150,2012-03-11 05:53:00